Portada
METAR-TAF:

METAR-TAF

Aeroports :

Khujand, Tadjikistan

latitud: 40-12-55N, longitud: 069-41-41E, altitud: 442 m

Observació

L'informe es va fer fa 41 minuts, a les 05:30 UTC
Vent 16 kt del Est
Temperatura 2°C
Humitat 75%
Pressió 1024 hPa
Visibilitat: 5000 m
boirina

METAR: UTDL 200530Z 08008MPS 5000 BR NSC 02/M02 Q1024 R08/19//65 NOSIG RMK QFE728/0971

Hora: 11:11 (06:11 UTC)

Pronòstic

L'informe es va fer fa 3 hores i 11 minuts, a les 03:00 UTC
Pronòstic vàlid del 20 a les 04 UTC al 20 a les 16 UTC
Vent 14 kt del Est
Visibilitat: 5000 m
boirina
Temporalment
l' 20 a les 07 UTC al 20 a les 13 UTC
Vent 23 kt del Est/Nord-Est

TAF: UTDL 200300Z 2004/2016 08007MPS 5000 BR NSC TEMPO 2007/2013 07012MPS

Observacions i pronòstics meteorològics de més de 4000 aeroports (METAR i TAF).

Les estacions disponibles són els punts grocs i vermells al mapa.

Posi el ratolí al punt desitjat per veure el nom de l'estació.

Feu clic per veure les observacions i els pronòstics meteorològics.

Per canviar el mapa: feu clic els botons verds amb una creu de color negre per apropar; al botó verd amb un guió per allunyar la imatge; o en les fletxes verdes per a mapes adjacents.


METAR-TAF: